This is the latest recevied weather packets stored in our database for station/object DJ2RF. If no packets are shown the sender has not sent any weather packets the latest 10 day(s).
| Time | Temp. | Humidity | Pressure | Rain* | Wind** | Luminosity | Snow |
|---|---|---|---|---|---|---|---|
| 1777653686 | 19.44° C | 40% | 1025.7 hPa | 0 mm | - | - | - |
| 1777653111 | 20° C | 38% | 1025.9 hPa | 0 mm | - | - | - |
| 1777652536 | 20.56° C | 38% | 1026 hPa | 0 mm | - | - | - |
| 1777651956 | 21.67° C | 37% | 1025.9 hPa | 0 mm | - | - | - |
| 1777651456 | 21.67° C | 36% | 1026 hPa | 0 mm | - | - | - |
| 1777650931 | 22.22° C | 37% | 1026 hPa | 0 mm | - | - | - |
| 1777650348 | 22.22° C | 38% | 1025.9 hPa | 0 mm | - | - | - |
| 1777649781 | 22.22° C | 33% | 1026.2 hPa | 0 mm | - | - | - |
| 1777649186 | 22.22° C | 35% | 1026.2 hPa | 0 mm | - | - | - |
| 1777648606 | 22.22° C | 35% | 1026.2 hPa | 0 mm | - | - | - |
| 1777648027 | 22.22° C | 37% | 1026.3 hPa | 0 mm | - | - | - |
| 1777647501 | 22.22° C | 37% | 1026.4 hPa | 0 mm | - | - | - |
| 1777646961 | 22.22° C | 37% | 1026.5 hPa | 0 mm | - | - | - |
| 1777646406 | 22.22° C | 36% | 1026.5 hPa | 0 mm | - | - | - |
| 1777645811 | 21.67° C | 37% | 1026.4 hPa | 0 mm | - | - | - |
| 1777645228 | 21.67° C | 35% | 1026.6 hPa | 0 mm | - | - | - |
| 1777644731 | 21.67° C | 35% | 1026.7 hPa | 0 mm | - | - | - |
| 1777644246 | 21.67° C | 34% | 1026.8 hPa | 0 mm | - | - | - |
| 1777643681 | 21.67° C | 35% | 1026.8 hPa | 0 mm | - | - | - |
| 1777643096 | 21.67° C | 35% | 1026.9 hPa | 0 mm | - | - | - |
| 1777642546 | 21.67° C | 35% | 1027 hPa | 0 mm | - | - | - |
| 1777641991 | 21.11° C | 34% | 1027.1 hPa | 0 mm | - | - | - |
| 1777641508 | 21.11° C | 35% | 1027.1 hPa | 0 mm | - | - | - |
| 1777640981 | 21.11° C | 39% | 1027.2 hPa | 0 mm | - | - | - |
| 1777640471 | 21.11° C | 36% | 1027.3 hPa | 0 mm | - | - | - |
* Rain latest hour (hover to see other rain measurements)
** Current wind speed in m/s (hover to see current wind gust speed)